Time;durP1;ratioP1;P1;durP2;ratioP2;P2;SDS_P1;SDS_P2;PMS_P1;PMS_P2;Temp;Humidity;BMP_temperature;BMP_pressure;BME280_temperature;BME280_humidity;BME280_pressure;Samples;Min_cycle;Max_cycle;Signal;HPM_P1;HPM_P2
2021/03/23 00:01:55;;;;;;;11.80;6.95;;;3.30;99.90;;;;;;6109561;29;20035;-79
2021/03/23 00:04:56;;;;;;;13.30;7.20;;;;;;;;;;6109031;29;20039;-79
2021/03/23 00:07:56;;;;;;;12.93;7.18;;;3.00;99.90;;;;;;6094109;29;20475;-80
2021/03/23 00:10:59;;;;;;;13.77;6.85;;;3.20;99.60;;;;;;6110392;29;20031;-80
2021/03/23 00:14:01;;;;;;;14.70;7.63;;;3.20;99.90;;;;;;6109841;29;20434;-79
2021/03/23 00:17:02;;;;;;;12.75;7.88;;;;;;;;;;6093985;29;20036;-80
2021/03/23 00:20:05;;;;;;;16.00;7.28;;;3.20;99.90;;;;;;6126888;29;20027;-80
2021/03/23 00:23:06;;;;;;;15.50;7.53;;;3.10;99.90;;;;;;6108579;29;20032;-80
2021/03/23 00:26:07;;;;;;;12.35;7.32;;;3.10;99.90;;;;;;6109759;29;20039;-80
2021/03/23 00:29:07;;;;;;;14.52;7.53;;;3.00;99.90;;;;;;6093229;29;20043;-79
2021/03/23 00:32:08;;;;;;;15.13;7.28;;;3.20;99.90;;;;;;6109356;29;20083;-80
2021/03/23 00:35:09;;;;;;;10.60;7.60;;;2.90;99.90;;;;;;6108590;29;20048;-79
2021/03/23 00:38:10;;;;;;;13.90;7.30;;;;;;;;;;6108907;29;20537;-80
2021/03/23 00:41:11;;;;;;;15.52;8.07;;;;;;;;;;6109889;29;20016;-79
2021/03/23 00:44:13;;;;;;;12.85;7.07;;;3.10;99.90;;;;;;6109184;29;20024;-80
2021/03/23 00:47:14;;;;;;;10.57;6.63;;;3.10;99.90;;;;;;6109130;29;20036;-79
2021/03/23 00:50:15;;;;;;;12.73;7.03;;;3.20;99.90;;;;;;6108519;29;20388;-79
2021/03/23 00:53:16;;;;;;;15.35;7.97;;;;;;;;;;6109267;29;20039;-80
2021/03/23 00:56:17;;;;;;;10.45;6.53;;;;;;;;;;6108845;29;20363;-80
2021/03/23 00:59:18;;;;;;;13.02;7.00;;;;;;;;;;6092107;29;20052;-79
2021/03/23 01:02:19;;;;;;;12.93;7.18;;;;;;;;;;6108294;29;20565;-79
2021/03/23 01:05:21;;;;;;;14.45;7.45;;;3.00;99.90;;;;;;6108236;29;20058;-80
2021/03/23 01:08:22;;;;;;;10.73;6.65;;;;;;;;;;6108591;29;20126;-79
2021/03/23 01:11:23;;;;;;;14.07;8.00;;;;;;;;;;6125362;29;20023;-80
2021/03/23 01:14:23;;;;;;;13.60;7.20;;;3.10;99.90;;;;;;6108795;29;20086;-80
2021/03/23 01:17:24;;;;;;;11.85;6.57;;;;;;;;;;6107696;29;20398;-80
2021/03/23 01:20:25;;;;;;;17.30;8.13;;;3.20;99.90;;;;;;6107161;29;20074;-79
2021/03/23 01:23:26;;;;;;;12.27;7.25;;;;;;;;;;6108285;29;20035;-80
2021/03/23 01:26:27;;;;;;;17.90;7.38;;;;;;;;;;6108691;29;20031;-79
2021/03/23 01:29:28;;;;;;;15.73;7.85;;;;;;;;;;6108040;29;20399;-80
2021/03/23 01:32:29;;;;;;;12.60;7.20;;;2.80;99.90;;;;;;6107833;29;20036;-80
2021/03/23 01:35:30;;;;;;;16.25;8.13;;;;;;;;;;6107994;29;20039;-79
2021/03/23 01:38:31;;;;;;;16.15;7.78;;;3.20;99.90;;;;;;6124730;29;20091;-80
2021/03/23 01:41:32;;;;;;;14.35;8.57;;;;;;;;;;6108407;29;20111;-80
2021/03/23 01:44:33;;;;;;;11.15;7.28;;;;;;;;;;6107586;29;20024;-80
2021/03/23 01:47:34;;;;;;;11.60;7.10;;;;;;;;;;6107662;29;20031;-80
2021/03/23 01:50:35;;;;;;;11.95;7.30;;;;;;;;;;6107435;29;20512;-80
2021/03/23 01:53:40;;;;;;;10.15;7.03;;;2.90;99.90;;;;;;6107326;29;20051;-79
2021/03/23 01:56:41;;;;;;;13.50;6.63;;;2.90;99.90;;;;;;6107503;29;20028;-80
2021/03/23 01:59:44;;;;;;;10.55;6.65;;;2.90;99.90;;;;;;6107660;29;20123;-80
2021/03/23 02:02:45;;;;;;;12.70;7.00;;;2.70;99.90;;;;;;6091134;29;20046;-79
2021/03/23 02:05:54;;;;;;;12.48;7.82;;;2.80;99.90;;;;;;6106593;29;20055;-79
2021/03/23 02:08:55;;;;;;;12.07;7.10;;;2.90;99.90;;;;;;6107226;29;20908;-80
2021/03/23 02:11:57;;;;;;;18.00;7.57;;;3.60;99.90;;;;;;6107054;29;20088;-79
2021/03/23 02:14:58;;;;;;;12.48;6.55;;;2.90;99.90;;;;;;6091675;29;20039;-79
2021/03/23 02:18:22;;;;;;;12.68;6.75;;;3.00;99.90;;;;;;6106092;29;20043;-80
2021/03/23 02:21:23;;;;;;;10.43;7.45;;;2.90;99.90;;;;;;6108556;29;20067;-79
2021/03/23 02:24:23;;;;;;;12.02;7.10;;;3.00;99.90;;;;;;6106689;29;20043;-79
2021/03/23 02:27:25;;;;;;;12.80;6.32;;;;;;;;;;6107106;29;20042;-80
2021/03/23 02:30:32;;;;;;;8.57;5.95;;;2.90;99.90;;;;;;6090952;29;20084;-79
2021/03/23 02:33:33;;;;;;;10.63;6.40;;;2.60;99.90;;;;;;6106850;29;20043;-79
2021/03/23 02:36:34;;;;;;;12.50;6.05;;;;;;;;;;6106669;29;20589;-79
2021/03/23 02:39:35;;;;;;;7.53;6.00;;;;;;;;;;6123605;29;20047;-79
2021/03/23 02:42:35;;;;;;;11.63;6.47;;;2.90;99.90;;;;;;6106505;29;20035;-80
2021/03/23 02:45:36;;;;;;;10.52;6.65;;;;;;;;;;6106477;29;20083;-80
2021/03/23 02:48:37;;;;;;;10.35;6.25;;;2.90;99.90;;;;;;6106659;29;20035;-79
2021/03/23 02:51:37;;;;;;;8.18;6.18;;;3.00;99.90;;;;;;6106773;29;20043;-80
2021/03/23 02:54:39;;;;;;;12.80;6.50;;;2.90;99.90;;;;;;6123376;29;20035;-79
2021/03/23 02:57:40;;;;;;;9.48;6.13;;;;;;;;;;6090370;29;20036;-80
2021/03/23 03:00:40;;;;;;;10.18;6.80;;;2.80;99.90;;;;;;6106484;29;20035;-79
2021/03/23 03:03:41;;;;;;;9.23;6.47;;;;;;;;;;6105774;29;20031;-79
2021/03/23 03:06:42;;;;;;;11.85;6.50;;;;;;;;;;6105717;29;20051;-80
2021/03/23 03:09:43;;;;;;;11.40;6.45;;;;;;;;;;6123055;29;20035;-80
2021/03/23 03:12:44;;;;;;;10.32;6.25;;;;;;;;;;6105992;29;20039;-79
2021/03/23 03:15:45;;;;;;;12.23;6.47;;;3.10;99.90;;;;;;6104843;29;20434;-80
2021/03/23 03:18:45;;;;;;;10.20;6.38;;;2.80;99.90;;;;;;6089643;29;20118;-79
2021/03/23 03:21:46;;;;;;;10.30;6.53;;;;;;;;;;6105585;29;20079;-80
2021/03/23 03:24:47;;;;;;;9.38;6.03;;;;;;;;;;6089368;29;20068;-80
2021/03/23 03:27:48;;;;;;;9.18;5.55;;;;;;;;;;6105592;29;20533;-80
2021/03/23 03:30:50;;;;;;;8.73;6.18;;;;;;;;;;6089792;29;20038;-79
2021/03/23 03:33:54;;;;;;;8.57;6.15;;;2.90;99.90;;;;;;6105909;29;20047;-80
2021/03/23 03:36:55;;;;;;;7.85;5.80;;;;;;;;;;6104757;29;20032;-80
2021/03/23 03:39:55;;;;;;;10.18;6.05;;;3.00;99.90;;;;;;6105655;29;20367;-80
2021/03/23 03:42:56;;;;;;;10.50;5.68;;;;;;;;;;6105885;29;20042;-80
2021/03/23 03:45:58;;;;;;;8.85;5.78;;;;;;;;;;6122730;29;20038;-79
2021/03/23 03:48:58;;;;;;;8.50;6.18;;;2.70;99.90;;;;;;6089479;29;20035;-79
2021/03/23 03:51:59;;;;;;;7.82;5.13;;;2.90;99.90;;;;;;6088827;29;20027;-80
2021/03/23 03:54:59;;;;;;;11.45;6.28;;;2.80;99.90;;;;;;6105177;29;20090;-80
2021/03/23 03:58:00;;;;;;;11.73;6.22;;;2.60;99.90;;;;;;6122343;29;20039;-80
2021/03/23 04:01:01;;;;;;;7.15;5.88;;;2.70;99.90;;;;;;6122707;29;20023;-80
2021/03/23 04:04:02;;;;;;;7.88;6.05;;;;;;;;;;6105202;29;20030;-80
2021/03/23 04:07:03;;;;;;;8.57;6.32;;;;;;;;;;6122359;29;20078;-80
2021/03/23 04:10:04;;;;;;;17.40;11.10;;;2.60;99.90;;;;;;6121567;29;20082;-80
2021/03/23 04:13:04;;;;;;;9.27;5.82;;;2.90;99.90;;;;;;6103982;29;20051;-80
2021/03/23 04:16:05;;;;;;;8.93;6.65;;;2.90;99.90;;;;;;6105112;29;20023;-79
2021/03/23 04:19:06;;;;;;;10.98;6.18;;;;;;;;;;6089593;29;20039;-80
2021/03/23 04:22:07;;;;;;;8.70;5.85;;;2.70;99.90;;;;;;6105438;29;20036;-80
2021/03/23 04:25:08;;;;;;;10.32;6.47;;;2.90;99.90;;;;;;6105001;29;20027;-80
2021/03/23 04:28:09;;;;;;;9.98;5.70;;;2.60;99.90;;;;;;6105381;29;20032;-79
2021/03/23 04:31:15;;;;;;;7.13;5.38;;;2.70;99.90;;;;;;6089553;29;20028;-79
2021/03/23 04:34:16;;;;;;;10.30;5.53;;;2.80;99.90;;;;;;6106131;29;20043;-80
2021/03/23 04:37:17;;;;;;;31.15;15.77;;;2.90;99.90;;;;;;6126262;29;20090;-80
2021/03/23 04:40:18;;;;;;;11.77;7.18;;;;;;;;;;6093738;29;20040;-80
2021/03/23 04:43:22;;;;;;;9.63;5.38;;;2.80;99.90;;;;;;6126290;29;20035;-80
2021/03/23 04:46:24;;;;;;;8.80;7.03;;;2.70;99.90;;;;;;6109199;29;20023;-80
2021/03/23 04:49:25;;;;;;;9.73;6.82;;;;;;;;;;6109501;29;20557;-80
2021/03/23 04:52:26;;;;;;;11.23;5.90;;;;;;;;;;6108948;29;20044;-80
2021/03/23 04:55:27;;;;;;;7.85;6.07;;;;;;;;;;6109063;29;20046;-79
2021/03/23 04:58:28;;;;;;;9.75;6.45;;;;;;;;;;6109020;29;20036;-80
2021/03/23 05:01:29;;;;;;;8.50;6.05;;;;;;;;;;6109272;29;20038;-80
2021/03/23 05:04:30;;;;;;;10.75;6.38;;;2.30;99.90;;;;;;6108900;29;20023;-80
2021/03/23 05:07:31;;;;;;;8.98;6.22;;;;;;;;;;6092495;29;20419;-80
2021/03/23 05:10:32;;;;;;;10.55;6.55;;;2.70;99.90;;;;;;6108555;29;20031;-80
2021/03/23 05:13:32;;;;;;;9.75;8.10;;;2.60;99.90;;;;;;6125828;29;20079;-80
2021/03/23 05:16:33;;;;;;;12.55;8.23;;;;;;;;;;6125953;29;20032;-80
2021/03/23 05:19:34;;;;;;;12.07;7.20;;;2.80;99.90;;;;;;6108768;29;20039;-80
2021/03/23 05:22:35;;;;;;;8.60;6.53;;;;;;;;;;6108392;29;20506;-80
2021/03/23 05:25:36;;;;;;;12.02;6.50;;;;;;;;;;6108615;29;20135;-80
2021/03/23 05:28:37;;;;;;;12.15;6.45;;;2.40;99.90;;;;;;6125977;29;20042;-79
2021/03/23 05:31:38;;;;;;;10.10;6.70;;;;;;;;;;6092073;29;20053;-80
2021/03/23 05:34:38;;;;;;;13.75;7.25;;;2.30;99.90;;;;;;6108404;29;20075;-80
2021/03/23 05:37:39;;;;;;;8.63;7.00;;;2.30;99.90;;;;;;6108434;29;20595;-80
2021/03/23 05:40:41;;;;;;;9.93;7.65;;;2.40;99.90;;;;;;6107952;29;20028;-80
2021/03/23 05:43:57;;;;;;;10.90;6.65;;;2.30;99.90;;;;;;6108279;29;20023;-80
2021/03/23 05:46:58;;;;;;;10.02;7.30;;;;;;;;;;6107538;29;20032;-79
2021/03/23 05:50:24;;;;;;;21.35;14.52;;;2.30;99.90;;;;;;6107903;29;20059;-80
2021/03/23 05:53:57;;;;;;;15.15;12.32;;;2.50;99.90;;;;;;6103171;29;20128;-80
2021/03/23 05:56:58;;;;;;;;;;;3.00;99.90;;;;;;6108603;29;20519;-79
2021/03/23 06:00:03;;;;;;;12.98;6.78;;;4.00;99.90;;;;;;6108066;29;19910;-80
2021/03/23 06:03:19;;;;;;;11.02;7.70;;;2.60;99.90;;;;;;6108362;29;20070;-80
2021/03/23 06:06:22;;;;;;;12.32;8.02;;;2.90;99.90;;;;;;6107149;29;20138;-79
2021/03/23 06:09:30;;;;;;;10.55;6.55;;;3.20;99.90;;;;;;6106261;29;20072;-80
2021/03/23 06:12:32;;;;;;;10.55;6.43;;;3.20;99.90;;;;;;6091725;29;20111;-80
2021/03/23 06:15:35;;;;;;;11.80;7.72;;;3.80;99.90;;;;;;6106632;29;20110;-79
2021/03/23 06:18:44;;;;;;;11.60;8.15;;;4.30;99.90;;;;;;6107482;29;20031;-80
2021/03/23 06:22:07;;;;;;;9.65;7.07;;;5.00;99.90;;;;;;6091390;29;20032;-80
2021/03/23 06:25:43;;;;;;;12.65;7.50;;;5.00;96.80;;;;;;6124135;29;20055;-77
2021/03/23 06:29:15;;;;;;;7.50;6.35;;;4.80;94.80;;;;;;6090920;29;20507;-79
2021/03/23 06:32:28;;;;;;;20.27;14.10;;;4.60;99.90;;;;;;6124354;29;20406;-79
2021/03/23 06:35:29;;;;;;;16.27;10.23;;;;;;;;;;6124141;29;20353;-79
2021/03/23 06:38:37;;;;;;;11.02;8.48;;;5.20;99.90;;;;;;6123340;29;20363;-79
2021/03/23 06:41:50;;;;;;;10.00;7.60;;;4.70;96.50;;;;;;6091053;29;20063;-80
2021/03/23 06:44:51;;;;;;;;;;;6.70;97.30;;;;;;6107319;29;20024;-81
2021/03/23 06:47:52;;;;;;;13.32;7.07;;;;;;;;;;6106079;29;20001;-80
2021/03/23 06:51:13;;;;;;;9.75;6.13;;;7.10;93.20;;;;;;6123173;29;20501;-80
2021/03/23 06:54:19;;;;;;;7.97;5.93;;;7.70;93.10;;;;;;6106373;29;20051;-80
2021/03/23 06:57:21;;;;;;;13.43;7.20;;;9.10;96.20;;;;;;6106064;29;20610;-81
2021/03/23 07:00:33;;;;;;;9.23;6.90;;;9.60;95.40;;;;;;6106552;29;20024;-81
2021/03/23 07:03:33;;;;;;;7.25;5.35;;;10.10;92.30;;;;;;6106532;29;20062;-81
2021/03/23 07:06:34;;;;;;;7.60;5.55;;;9.90;96.60;;;;;;6121766;29;20055;-80
2021/03/23 07:10:03;;;;;;;8.55;5.78;;;9.90;85.70;;;;;;6090085;29;20055;-80
2021/03/23 07:13:05;;;;;;;7.43;5.13;;;10.30;95.10;;;;;;6106023;29;20187;-81
2021/03/23 07:16:09;;;;;;;;;;;10.10;75.70;;;;;;6091545;29;20070;-81
2021/03/23 07:19:10;;;;;;;6.97;5.63;;;11.20;90.40;;;;;;6123150;29;19911;-80
2021/03/23 07:22:19;;;;;;;7.20;6.15;;;10.90;82.30;;;;;;6106158;29;20024;-81
2021/03/23 07:25:33;;;;;;;12.82;7.88;;;11.00;64.50;;;;;;6105726;29;20030;-80
2021/03/23 07:28:36;;;;;;;12.63;7.68;;;12.00;81.10;;;;;;6123178;29;20028;-79
2021/03/23 07:31:47;;;;;;;10.70;7.50;;;11.80;91.40;;;;;;6106088;29;20050;-80
2021/03/23 07:35:07;;;;;;;9.80;7.10;;;11.70;77.80;;;;;;6097815;29;20657;-81
2021/03/23 07:38:30;;;;;;;12.30;7.45;;;12.00;82.10;;;;;;6105414;29;20039;-82
2021/03/23 07:41:35;;;;;;;9.25;7.05;;;12.20;63.40;;;;;;6107577;29;20085;-82
2021/03/23 07:44:36;;;;;;;10.55;6.60;;;12.80;63.10;;;;;;6104986;29;20517;-81
2021/03/23 07:47:44;;;;;;;11.40;7.95;;;12.80;82.20;;;;;;6104130;29;20024;-81
2021/03/23 07:50:46;;;;;;;9.48;7.70;;;12.50;60.60;;;;;;6104401;29;20663;-80
2021/03/23 07:53:46;;;;;;;8.03;5.97;;;12.50;64.40;;;;;;6086691;29;20528;-80
2021/03/23 07:57:25;;;;;;;10.27;6.30;;;11.80;88.60;;;;;;6103995;29;20027;-80
2021/03/23 08:00:57;;;;;;;11.02;6.53;;;11.30;92.10;;;;;;6120844;29;20054;-80
2021/03/23 08:04:07;;;;;;;11.35;7.05;;;11.00;79.70;;;;;;6113709;29;20035;-80
2021/03/23 08:07:32;;;;;;;7.75;6.15;;;11.00;75.60;;;;;;6121345;29;20052;-80
2021/03/23 08:10:34;;;;;;;9.02;6.18;;;11.10;61.70;;;;;;6122618;29;20040;-80
2021/03/23 08:13:38;;;;;;;6.13;5.28;;;10.90;65.60;;;;;;6106109;29;20036;-82
2021/03/23 08:17:02;;;;;;;9.13;5.45;;;11.10;65.70;;;;;;6103755;29;20391;-84
2021/03/23 08:20:34;;;;;;;6.90;5.93;;;11.40;65.20;;;;;;6093805;29;20093;-84
2021/03/23 08:24:05;;;;;;;10.50;5.72;;;11.50;78.90;;;;;;6108301;29;20840;-84
2021/03/23 08:27:29;;;;;;;7.85;5.40;;;11.80;64.50;;;;;;6075426;29;20039;-84
2021/03/23 08:30:34;;;;;;;8.25;4.90;;;11.80;60.00;;;;;;6109409;29;20028;-83
2021/03/23 08:34:12;;;;;;;8.65;6.20;;;11.50;59.20;;;;;;6108487;29;20032;-83
2021/03/23 08:37:34;;;;;;;9.60;5.70;;;11.70;60.00;;;;;;6125963;29;20039;-84
2021/03/23 08:40:53;;;;;;;8.00;5.55;;;11.70;63.90;;;;;;6109334;29;20493;-84
2021/03/23 08:43:54;;;;;;;7.70;5.35;;;11.30;60.00;;;;;;6108921;29;20040;-83
2021/03/23 08:46:55;;;;;;;8.02;5.30;;;10.70;81.30;;;;;;6077628;29;20032;-83
2021/03/23 08:50:05;;;;;;;7.07;5.13;;;10.50;92.70;;;;;;6108182;29;20122;-84
2021/03/23 08:53:28;;;;;;;5.47;4.40;;;10.50;82.70;;;;;;6092734;29;20028;-83
2021/03/23 08:56:41;;;;;;;6.53;4.38;;;10.00;82.20;;;;;;6108474;29;20430;-83
2021/03/23 08:59:43;;;;;;;6.10;4.65;;;9.10;84.20;;;;;;6107378;29;20431;-83
2021/03/23 09:02:44;;;;;;;6.28;4.25;;;9.20;77.90;;;;;;6108134;29;20039;-83
2021/03/23 09:05:51;;;;;;;5.38;4.47;;;9.40;87.60;;;;;;6108322;29;20079;-83
2021/03/23 09:09:29;;;;;;;5.75;4.50;;;9.10;87.40;;;;;;6108322;29;20058;-83
2021/03/23 09:12:41;;;;;;;8.23;4.97;;;9.60;87.20;;;;;;6107646;29;20062;-84
2021/03/23 09:15:52;;;;;;;5.78;4.43;;;10.20;85.30;;;;;;6092462;29;20032;-84
2021/03/23 09:19:02;;;;;;;6.15;4.55;;;11.00;81.50;;;;;;6091645;29;20035;-84
2021/03/23 09:22:03;;;;;;;5.85;4.15;;;11.40;78.80;;;;;;6107244;29;20490;-84
2021/03/23 09:25:42;;;;;;;7.43;4.85;;;11.30;77.40;;;;;;6123020;29;20031;-84
2021/03/23 09:28:51;;;;;;;4.68;4.05;;;11.90;70.60;;;;;;6110096;29;20024;-83
2021/03/23 09:31:52;;;;;;;5.22;3.95;;;12.30;57.90;;;;;;6092989;29;20493;-84
2021/03/23 09:35:10;;;;;;;6.15;4.38;;;12.60;56.90;;;;;;6107487;29;20039;-83
2021/03/23 09:38:34;;;;;;;6.20;4.22;;;12.20;55.90;;;;;;6107861;29;20039;-84
2021/03/23 09:41:36;;;;;;;5.53;3.80;;;11.50;56.20;;;;;;6091434;29;20382;-85
2021/03/23 09:44:45;;;;;;;4.57;3.75;;;10.90;59.40;;;;;;6092223;29;20086;-83
2021/03/23 09:47:50;;;;;;;5.10;4.10;;;11.00;78.50;;;;;;6091160;29;20083;-84
2021/03/23 09:50:51;;;;;;;17.10;11.15;;;;;;;;;;6107847;29;20023;-84
2021/03/23 09:53:53;;;;;;;6.63;4.40;;;;;;;;;;6106978;29;20074;-84
2021/03/23 09:56:57;;;;;;;6.73;5.00;;;10.50;80.20;;;;;;6107333;29;20070;-83
2021/03/23 09:59:59;;;;;;;7.85;5.95;;;11.00;79.70;;;;;;6106297;29;20036;-84
2021/03/23 10:03:00;;;;;;;6.13;4.78;;;;;;;;;;6107091;29;20038;-83
2021/03/23 10:06:07;;;;;;;5.95;4.32;;;11.00;57.20;;;;;;6106946;29;20059;-84
2021/03/23 10:09:08;;;;;;;5.53;4.35;;;12.50;57.50;;;;;;6091296;29;20055;-83
2021/03/23 10:12:09;;;;;;;4.40;3.67;;;13.40;52.90;;;;;;6107157;29;20059;-84
2021/03/23 10:15:31;;;;;;;6.22;4.18;;;13.40;52.10;;;;;;6106181;29;20028;-84
2021/03/23 10:18:39;;;;;;;5.93;4.43;;;13.30;53.40;;;;;;6091116;29;20027;-86
2021/03/23 10:21:46;;;;;;;7.82;3.92;;;14.40;63.00;;;;;;6090441;29;20035;-84
2021/03/23 10:24:47;;;;;;;6.70;4.45;;;14.60;49.80;;;;;;6090785;29;20031;-84
2021/03/23 10:27:48;;;;;;;5.15;3.88;;;14.20;50.40;;;;;;6090554;29;20122;-85
2021/03/23 10:30:55;;;;;;;7.10;4.88;;;14.00;52.90;;;;;;6106160;29;20038;-84
2021/03/23 10:34:23;;;;;;;7.57;5.38;;;13.20;53.10;;;;;;6105666;29;20040;-86
2021/03/23 10:37:24;;;;;;;4.25;3.63;;;13.20;70.60;;;;;;6084391;29;20573;-86
2021/03/23 10:40:34;;;;;;;6.22;3.97;;;13.30;53.00;;;;;;6106213;29;20075;-85
2021/03/23 10:43:40;;;;;;;4.78;3.83;;;13.30;67.80;;;;;;6090690;29;20035;-85
2021/03/23 10:46:42;;;;;;;4.68;3.83;;;13.40;55.20;;;;;;6090429;29;20035;-85
2021/03/23 10:49:43;;;;;;;;;;;13.50;53.40;;;;;;6106470;29;20107;-86
2021/03/23 10:52:44;;;;;;;7.75;4.10;;;14.00;50.80;;;;;;6106375;29;20247;-84
2021/03/23 10:55:45;;;;;;;5.47;4.97;;;14.60;48.20;;;;;;6090394;29;20043;-85
2021/03/23 10:59:24;;;;;;;7.28;4.57;;;14.70;49.30;;;;;;6090051;29;20069;-81
2021/03/23 11:02:31;;;;;;;4.55;3.97;;;15.00;46.90;;;;;;6101854;29;20126;-82
2021/03/23 11:05:43;;;;;;;4.07;3.53;;;14.90;47.50;;;;;;6105344;29;20048;-79
2021/03/23 11:08:44;;;;;;;5.60;3.90;;;14.10;49.80;;;;;;6090705;29;20035;-79
2021/03/23 11:11:45;;;;;;;6.38;4.43;;;14.10;51.10;;;;;;6089996;29;20038;-79
2021/03/23 11:14:45;;;;;;;8.13;4.40;;;13.90;48.90;;;;;;6096562;29;20028;-79
2021/03/23 11:17:53;;;;;;;6.97;4.55;;;15.20;51.50;;;;;;6101362;29;20027;-79
2021/03/23 11:20:54;;;;;;;5.95;4.90;;;14.00;49.30;;;;;;6101348;29;20046;-80
2021/03/23 11:23:55;;;;;;;5.75;4.15;;;13.50;49.90;;;;;;6125773;29;20027;-79
2021/03/23 11:26:57;;;;;;;4.50;3.92;;;13.90;52.20;;;;;;6094583;29;20024;-79
2021/03/23 11:29:58;;;;;;;5.18;4.47;;;14.10;51.50;;;;;;6109803;29;20082;-79
2021/03/23 11:32:59;;;;;;;5.60;4.32;;;13.90;53.50;;;;;;6108189;29;20498;-79
2021/03/23 11:36:00;;;;;;;17.25;4.75;;;14.00;70.70;;;;;;6122892;29;20475;-81
2021/03/23 11:39:01;;;;;;;5.38;4.00;;;14.30;53.00;;;;;;6090266;29;20040;-76
2021/03/23 11:42:06;;;;;;;6.03;4.28;;;14.50;51.90;;;;;;6105605;29;20067;-77
2021/03/23 11:45:29;;;;;;;8.55;4.53;;;14.90;52.20;;;;;;6105434;29;20027;-74
2021/03/23 11:48:33;;;;;;;6.20;4.95;;;14.60;49.60;;;;;;6123428;29;20032;-79
2021/03/23 11:51:35;;;;;;;7.15;4.75;;;14.90;50.50;;;;;;6105782;29;20030;-81
2021/03/23 11:54:36;;;;;;;5.55;4.22;;;14.50;50.50;;;;;;6089952;29;20067;-82
2021/03/23 11:57:37;;;;;;;6.72;4.70;;;14.40;53.20;;;;;;6090868;29;20035;-82
2021/03/23 12:00:38;;;;;;;5.72;4.47;;;14.20;82.90;;;;;;6089621;29;20044;-80
2021/03/23 12:03:39;;;;;;;7.50;4.80;;;;;;;;;;6105845;29;20034;-84
2021/03/23 12:07:03;;;;;;;7.05;4.88;;;13.60;67.70;;;;;;6089473;29;20059;-83
2021/03/23 12:10:05;;;;;;;4.70;3.90;;;13.60;51.50;;;;;;6105394;29;20090;-82
2021/03/23 12:13:25;;;;;;;5.05;4.40;;;14.40;82.90;;;;;;6105490;29;20590;-82
2021/03/23 12:16:33;;;;;;;6.15;4.40;;;14.90;69.00;;;;;;6089192;29;20390;-81
2021/03/23 12:20:21;;;;;;;4.82;4.32;;;15.60;45.80;;;;;;6105182;29;20103;-81
2021/03/23 12:23:22;;;;;;;5.05;4.07;;;15.60;63.60;;;;;;6119179;29;20032;-81
2021/03/23 12:26:23;;;;;;;4.78;4.13;;;;;;;;;;6104351;29;20110;-82
2021/03/23 12:29:27;;;;;;;4.70;3.95;;;15.40;59.60;;;;;;6089501;29;20031;-85
2021/03/23 12:32:28;;;;;;;5.00;4.28;;;;;;;;;;6088756;29;20467;-85
2021/03/23 12:35:29;;;;;;;5.80;4.72;;;;;;;;;;6106091;29;20367;-80
2021/03/23 12:38:30;;;;;;;6.68;4.78;;;;;;;;;;6121541;29;20038;-79
2021/03/23 12:41:32;;;;;;;12.98;4.20;;;14.80;65.70;;;;;;6120952;29;20032;-80
2021/03/23 12:44:33;;;;;;;13.23;4.60;;;15.00;51.10;;;;;;6104120;29;20036;-82
2021/03/23 12:47:35;;;;;;;6.60;5.28;;;;;;;;;;6104913;29;20146;-80
2021/03/23 12:50:36;;;;;;;5.55;4.70;;;14.60;64.80;;;;;;6120931;29;20554;-79
2021/03/23 12:53:36;;;;;;;6.15;4.25;;;14.20;69.90;;;;;;6088988;29;20071;-89
2021/03/23 12:56:37;;;;;;;6.68;4.30;;;;;;;;;;6106806;29;21253;-85
2021/03/23 12:59:38;;;;;;;5.28;4.45;;;;;;;;;;6109172;29;20028;-84
2021/03/23 13:02:39;;;;;;;15.85;4.95;;;13.70;74.60;;;;;;6092983;29;20046;-80
2021/03/23 13:05:40;;;;;;;8.00;5.07;;;13.70;56.60;;;;;;6091986;29;20066;-79
2021/03/23 13:08:40;;;;;;;6.50;4.88;;;13.60;73.20;;;;;;6108860;29;20043;-80
2021/03/23 13:11:45;;;;;;;5.97;4.55;;;13.80;55.30;;;;;;6092895;29;20066;-81
2021/03/23 13:14:46;;;;;;;5.22;4.32;;;13.80;55.80;;;;;;6108015;29;20380;-82
2021/03/23 13:17:47;;;;;;;5.55;4.43;;;13.40;55.00;;;;;;6108709;29;20079;-79
2021/03/23 13:20:48;;;;;;;6.20;4.90;;;13.60;73.70;;;;;;6107346;29;20031;-79
2021/03/23 13:23:52;;;;;;;5.50;4.45;;;13.90;55.70;;;;;;6106995;29;20062;-80
2021/03/23 13:26:53;;;;;;;5.50;4.72;;;13.50;56.70;;;;;;6108805;29;20396;-77
2021/03/23 13:29:56;;;;;;;7.35;5.00;;;13.20;58.20;;;;;;6108614;29;20067;-79
2021/03/23 13:32:59;;;;;;;7.28;4.43;;;13.40;57.60;;;;;;6108620;29;20049;-82
2021/03/23 13:35:59;;;;;;;5.82;4.15;;;13.00;77.10;;;;;;6109186;29;20482;-79
2021/03/23 13:39:02;;;;;;;7.32;4.97;;;13.30;57.90;;;;;;6092419;29;20031;-78
2021/03/23 13:42:31;;;;;;;6.30;4.85;;;13.40;55.50;;;;;;6108272;29;20028;-78
2021/03/23 13:45:36;;;;;;;6.13;4.60;;;13.50;53.00;;;;;;6100921;29;20390;-79
2021/03/23 13:48:37;;;;;;;6.53;4.30;;;13.60;51.30;;;;;;6107436;29;20024;-77
2021/03/23 13:51:44;;;;;;;7.55;4.35;;;13.60;56.00;;;;;;6125135;29;20039;-79
2021/03/23 13:54:45;;;;;;;15.63;5.30;;;13.50;57.30;;;;;;6108745;29;20049;-77
2021/03/23 13:57:46;;;;;;;6.03;4.38;;;13.60;59.60;;;;;;6107528;29;20479;-79
2021/03/23 14:00:47;;;;;;;6.53;4.05;;;14.00;54.80;;;;;;6107528;29;20060;-79
2021/03/23 14:03:49;;;;;;;6.30;4.93;;;14.20;53.30;;;;;;6123190;29;20071;-81
2021/03/23 14:06:49;;;;;;;7.10;4.85;;;14.60;54.70;;;;;;6106856;29;20302;-81
2021/03/23 14:10:22;;;;;;;6.40;4.47;;;14.40;70.60;;;;;;6092242;29;20032;-79
2021/03/23 14:13:24;;;;;;;7.03;4.15;;;;;;;;;;6094327;29;20040;-81
2021/03/23 14:16:25;;;;;;;7.70;4.80;;;14.40;51.30;;;;;;6093428;29;20107;-80
2021/03/23 14:19:26;;;;;;;6.32;5.57;;;15.60;57.10;;;;;;6108359;29;20034;-80
2021/03/23 14:22:47;;;;;;;;;;;;;;;;;;;;;
2021/03/23 14:26:17;;;;;;;6.75;4.80;;;14.60;76.60;;;;;;6111410;29;20777;-80
2021/03/23 14:29:20;;;;;;;10.10;6.72;;;14.50;77.00;;;;;;6095242;29;20364;-81
2021/03/23 14:32:21;;;;;;;8.00;6.20;;;14.20;75.90;;;;;;6092252;29;20028;-81
2021/03/23 14:35:31;;;;;;;11.00;6.97;;;;;;;;;;6091455;29;20050;-81
2021/03/23 14:38:38;;;;;;;9.15;6.25;;;13.80;62.30;;;;;;6106176;29;20038;-82
2021/03/23 14:41:41;;;;;;;10.40;6.63;;;15.80;66.50;;;;;;6091011;29;20086;-80
2021/03/23 14:44:42;;;;;;;9.63;6.70;;;14.20;64.90;;;;;;6105035;29;20034;-80
2021/03/23 14:47:43;;;;;;;9.30;6.90;;;;;;;;;;6105062;29;20032;-81
2021/03/23 14:50:43;;;;;;;9.13;6.80;;;13.80;76.90;;;;;;6106449;29;20079;-81
2021/03/23 14:53:45;;;;;;;7.63;6.38;;;;;;;;;;6106104;29;20047;-79
2021/03/23 14:56:46;;;;;;;10.35;7.25;;;13.30;60.00;;;;;;6087316;29;20030;-80
2021/03/23 15:11:05;;;;;;;11.90;6.05;;;12.40;80.50;;;;;;6151286;23;20071;-80
2021/03/23 15:14:06;;;;;;;10.82;7.38;;;12.20;84.20;;;;;;6105594;29;20040;-80
2021/03/23 15:17:07;;;;;;;11.07;6.85;;;12.20;84.50;;;;;;6105811;29;20082;-79
2021/03/23 15:20:08;;;;;;;7.93;6.25;;;12.20;67.70;;;;;;6105722;29;20035;-79
2021/03/23 15:23:49;;;;;;;12.50;7.00;;;12.10;66.80;;;;;;6090464;29;20036;-79
2021/03/23 15:26:51;;;;;;;10.57;7.03;;;12.10;64.20;;;;;;6003340;29;20459;-79
2021/03/23 15:29:51;;;;;;;10.50;7.45;;;11.80;65.90;;;;;;6003898;29;20045;-80
2021/03/23 15:32:52;;;;;;;10.13;6.80;;;11.70;67.90;;;;;;6102506;29;20475;-81
2021/03/23 15:35:53;;;;;;;10.55;7.10;;;;;;;;;;6089568;29;20382;-80
2021/03/23 15:38:54;;;;;;;9.55;6.82;;;11.60;62.30;;;;;;6106035;29;20028;-79
2021/03/23 15:41:55;;;;;;;11.38;6.80;;;;;;;;;;6091770;29;20078;-81
2021/03/23 15:44:55;;;;;;;10.32;6.40;;;11.60;62.70;;;;;;6121799;29;20030;-81
2021/03/23 15:47:56;;;;;;;14.45;6.95;;;11.50;67.00;;;;;;6089261;29;20062;-81
2021/03/23 15:50:57;;;;;;;11.02;7.20;;;11.50;67.40;;;;;;6105029;29;20039;-80
2021/03/23 15:53:58;;;;;;;8.45;6.55;;;11.40;66.50;;;;;;6089708;29;20040;-81
2021/03/23 15:56:59;;;;;;;11.07;6.85;;;;;;;;;;6089223;29;20475;-81
2021/03/23 15:59:59;;;;;;;10.85;6.63;;;11.10;93.30;;;;;;6105094;29;20031;-82
2021/03/23 16:03:01;;;;;;;9.55;6.50;;;11.30;84.50;;;;;;6105323;29;20035;-81
2021/03/23 16:06:01;;;;;;;12.20;7.03;;;11.20;93.60;;;;;;6089165;29;20046;-81
2021/03/23 16:09:12;;;;;;;9.63;6.75;;;11.10;91.20;;;;;;6073090;29;20051;-82
2021/03/23 16:12:19;;;;;;;9.27;6.22;;;11.20;93.80;;;;;;6090363;29;20055;-82
2021/03/23 16:15:28;;;;;;;9.95;6.82;;;11.20;93.70;;;;;;6089532;29;20118;-81
2021/03/23 16:18:28;;;;;;;8.27;6.45;;;10.90;89.70;;;;;;6074232;29;20032;-81
2021/03/23 16:21:35;;;;;;;9.05;6.82;;;10.60;87.30;;;;;;6088781;29;20099;-81
2021/03/23 16:24:35;;;;;;;14.98;6.80;;;10.70;91.90;;;;;;6087760;29;20036;-83
2021/03/23 16:27:36;;;;;;;10.70;6.55;;;;;;;;;;6103263;29;20047;-80
2021/03/23 16:30:37;;;;;;;8.43;6.47;;;;;;;;;;6121945;29;20047;-82
2021/03/23 16:33:38;;;;;;;9.52;6.90;;;;;;;;;;6108259;29;20087;-78
2021/03/23 16:36:41;;;;;;;9.15;6.32;;;;;;;;;;6125298;29;20032;-80
2021/03/23 16:39:42;;;;;;;7.85;6.00;;;;;;;;;;6091250;29;20074;-79
2021/03/23 16:42:43;;;;;;;8.65;5.85;;;;;;;;;;6125600;29;20028;-80
2021/03/23 16:45:43;;;;;;;10.23;7.00;;;10.50;85.00;;;;;;6109952;29;20028;-84
2021/03/23 16:48:44;;;;;;;9.75;6.43;;;10.30;88.20;;;;;;6078093;29;20062;-84